createdAt,value
2023-02-22T00:00:42.750Z,12.83
2023-02-22T00:03:12.605Z,10.70
2023-02-22T00:05:45.090Z,9.73
2023-02-22T00:08:11.559Z,11.40
2023-02-22T00:10:38.476Z,12.77
2023-02-22T00:13:07.332Z,10.07
2023-02-22T00:15:34.338Z,10.77
2023-02-22T00:18:01.396Z,9.67
2023-02-22T00:20:28.602Z,12.87
2023-02-22T00:22:55.466Z,9.23
2023-02-22T00:25:25.667Z,10.40
2023-02-22T00:27:52.983Z,10.07
2023-02-22T00:30:26.948Z,10.37
2023-02-22T00:32:55.857Z,12.13
2023-02-22T00:35:25.046Z,10.10
2023-02-22T00:37:54.336Z,9.33
2023-02-22T00:40:30.575Z,10.63
2023-02-22T00:42:58.598Z,10.83
2023-02-22T00:45:27.329Z,11.00
2023-02-22T00:47:57.597Z,10.03
2023-02-22T00:50:26.776Z,11.33
2023-02-22T00:52:54.118Z,12.17
2023-02-22T00:55:24.315Z,11.63
2023-02-22T00:57:51.366Z,8.80
2023-02-22T01:00:21.208Z,12.37
2023-02-22T01:02:51.119Z,11.03
2023-02-22T01:05:21.159Z,10.33
2023-02-22T01:07:49.639Z,11.63
2023-02-22T01:10:19.424Z,10.17
2023-02-22T01:12:47.816Z,11.30
2023-02-22T01:15:16.271Z,11.67
2023-02-22T01:17:43.813Z,9.77
2023-02-22T01:20:14.261Z,12.93
2023-02-22T01:22:42.183Z,11.27
2023-02-22T01:25:11.260Z,10.67
2023-02-22T01:27:38.519Z,10.90
2023-02-22T01:30:09.087Z,10.80
2023-02-22T01:32:36.342Z,10.53
2023-02-22T01:35:05.016Z,12.17
2023-02-22T01:37:32.377Z,11.50
2023-02-22T01:39:58.977Z,11.07
2023-02-22T01:42:26.438Z,9.77
2023-02-22T01:45:30.177Z,11.40
2023-02-22T01:48:09.461Z,10.70
2023-02-22T01:50:44.339Z,10.43
2023-02-22T01:53:14.165Z,10.53
2023-02-22T01:55:40.857Z,10.07
2023-02-22T01:58:08.799Z,10.93
2023-02-22T02:00:35.443Z,8.90
2023-02-22T02:03:08.675Z,11.70
2023-02-22T02:05:35.907Z,9.30
2023-02-22T02:08:14.504Z,10.33
2023-02-22T02:10:41.919Z,12.50
2023-02-22T02:13:10.098Z,12.20
2023-02-22T02:15:37.165Z,11.20
2023-02-22T02:18:07.656Z,9.77
2023-02-22T02:21:04.725Z,10.10
2023-02-22T02:23:56.280Z,10.43
2023-02-22T02:26:53.700Z,11.43
2023-02-22T02:29:55.452Z,10.00
2023-02-22T02:32:35.718Z,11.20
2023-02-22T02:35:07.601Z,11.27
2023-02-22T02:38:06.229Z,12.63
2023-02-22T02:40:58.621Z,12.77
2023-02-22T02:43:35.277Z,13.47
2023-02-22T02:46:06.264Z,12.73
2023-02-22T02:48:35.453Z,13.80
2023-02-22T02:51:05.669Z,12.73
2023-02-22T02:53:35.210Z,12.87
2023-02-22T02:56:02.370Z,12.57
2023-02-22T02:58:29.616Z,12.73
2023-02-22T03:01:00.201Z,12.77
2023-02-22T03:04:12.089Z,11.80
2023-02-22T03:06:53.614Z,13.83
2023-02-22T03:09:27.620Z,13.37
2023-02-22T03:12:15.160Z,10.30
2023-02-22T03:15:14.116Z,12.80
2023-02-22T03:17:59.938Z,11.13
2023-02-22T03:20:35.929Z,12.77
2023-02-22T03:23:12.093Z,14.50
2023-02-22T03:25:43.731Z,14.13
2023-02-22T03:28:11.894Z,15.23
2023-02-22T03:30:42.816Z,12.67
2023-02-22T03:33:28.018Z,12.77
2023-02-22T03:35:57.111Z,15.20
2023-02-22T03:38:26.925Z,13.67
2023-02-22T03:40:54.576Z,15.30
2023-02-22T03:43:28.064Z,15.37
2023-02-22T03:45:54.908Z,16.07
2023-02-22T03:48:36.854Z,17.13
2023-02-22T03:51:04.536Z,14.60
2023-02-22T03:53:32.943Z,16.57
2023-02-22T03:56:00.348Z,15.17
2023-02-22T03:58:30.955Z,13.83
2023-02-22T04:00:57.604Z,14.67
2023-02-22T04:03:24.060Z,16.93
2023-02-22T04:05:50.699Z,16.17
2023-02-22T04:08:17.360Z,15.40
2023-02-22T04:10:43.886Z,17.00
2023-02-22T04:13:10.715Z,15.47
2023-02-22T04:15:37.365Z,16.97
2023-02-22T04:18:04.093Z,16.87
2023-02-22T04:20:31.693Z,16.33
2023-02-22T04:22:58.178Z,15.63
2023-02-22T04:25:24.718Z,17.93
2023-02-22T04:27:51.208Z,17.10
2023-02-22T04:30:19.236Z,15.20
2023-02-22T04:32:46.163Z,18.27
2023-02-22T04:35:12.732Z,19.43
2023-02-22T04:37:39.254Z,19.47
2023-02-22T04:40:09.124Z,16.60
2023-02-22T04:42:36.137Z,17.03
2023-02-22T04:45:04.090Z,17.97
2023-02-22T04:47:30.616Z,16.20
2023-02-22T04:49:57.210Z,16.00
2023-02-22T04:52:23.750Z,17.10
2023-02-22T04:54:50.836Z,16.90
2023-02-22T04:57:17.253Z,15.37
2023-02-22T04:59:44.308Z,18.77
2023-02-22T05:02:10.857Z,16.33
2023-02-22T05:04:40.546Z,18.00
2023-02-22T05:07:07.056Z,14.47
2023-02-22T05:09:34.200Z,17.17
2023-02-22T05:12:00.678Z,18.07
2023-02-22T05:14:27.606Z,18.00
2023-02-22T05:16:56.092Z,20.17
2023-02-22T05:19:22.683Z,19.00
2023-02-22T05:21:49.290Z,18.43
2023-02-22T05:24:16.057Z,16.50
2023-02-22T05:26:46.235Z,18.80
2023-02-22T05:29:13.224Z,17.63
2023-02-22T05:31:41.774Z,18.53
2023-02-22T05:34:08.327Z,18.27
2023-02-22T05:36:34.857Z,17.40
2023-02-22T05:39:01.732Z,19.57
2023-02-22T05:41:28.408Z,19.37
2023-02-22T05:43:54.885Z,17.53
2023-02-22T05:46:21.534Z,18.60
2023-02-22T05:48:48.056Z,20.00
2023-02-22T05:51:14.640Z,19.07
2023-02-22T05:53:42.547Z,21.33
2023-02-22T05:56:09.030Z,18.17
2023-02-22T05:58:35.922Z,21.80
2023-02-22T06:01:03.420Z,19.03
2023-02-22T06:03:30.012Z,18.83
2023-02-22T06:05:56.447Z,20.87
2023-02-22T06:08:22.942Z,20.17
2023-02-22T06:10:49.425Z,23.33
2023-02-22T06:13:15.952Z,23.17
2023-02-22T06:15:42.379Z,20.87
2023-02-22T06:18:08.849Z,20.37
2023-02-22T06:20:35.566Z,21.33
2023-02-22T06:23:02.029Z,21.43
2023-02-22T06:25:32.973Z,25.87
2023-02-22T06:28:00.768Z,23.00
2023-02-22T06:30:28.136Z,23.33
2023-02-22T06:32:54.655Z,20.00
2023-02-22T06:35:21.765Z,21.50
2023-02-22T06:37:48.352Z,22.87
2023-02-22T06:40:15.782Z,21.93
2023-02-22T06:42:42.345Z,22.63
2023-02-22T06:45:09.530Z,21.17
2023-02-22T06:47:40.954Z,22.23
2023-02-22T06:50:10.293Z,23.03
2023-02-22T06:52:42.528Z,25.87
2023-02-22T06:55:08.966Z,30.03
2023-02-22T06:57:35.478Z,26.43
2023-02-22T07:00:02.047Z,32.07
2023-02-22T07:02:28.579Z,29.43
2023-02-22T07:04:54.996Z,24.10
2023-02-22T07:07:23.424Z,25.90
2023-02-22T07:09:49.842Z,29.83
2023-02-22T07:12:16.316Z,30.93
2023-02-22T07:14:42.906Z,24.53
2023-02-22T07:17:09.434Z,24.47
2023-02-22T07:19:35.975Z,24.67
2023-02-22T07:22:02.452Z,25.47
2023-02-22T07:24:28.905Z,29.97
2023-02-22T07:26:55.674Z,26.33
2023-02-22T07:29:25.353Z,25.10
2023-02-22T07:31:51.918Z,24.03
2023-02-22T07:34:18.572Z,24.57
2023-02-22T07:36:45.252Z,29.27
2023-02-22T07:39:11.733Z,25.77
2023-02-22T07:41:38.297Z,27.47
2023-02-22T07:44:05.018Z,30.30
2023-02-22T07:46:32.026Z,30.73
2023-02-22T07:48:58.554Z,25.87
2023-02-22T07:51:25.203Z,28.60
2023-02-22T07:53:51.754Z,30.20
2023-02-22T07:56:18.271Z,32.30
2023-02-22T07:58:45.337Z,37.10
2023-02-22T08:01:11.874Z,33.80
2023-02-22T08:03:38.585Z,36.07
2023-02-22T08:06:07.022Z,27.47
2023-02-22T08:08:34.438Z,29.37
2023-02-22T08:11:01.013Z,29.43
2023-02-22T08:13:28.200Z,26.43
2023-02-22T08:15:55.072Z,23.37
2023-02-22T08:18:23.041Z,24.97
2023-02-22T08:20:52.035Z,24.13
2023-02-22T08:23:20.219Z,24.20
2023-02-22T08:25:46.756Z,25.17
2023-02-22T08:28:15.907Z,23.00
2023-02-22T08:30:43.794Z,23.27
2023-02-22T08:33:14.308Z,25.80
2023-02-22T08:35:41.388Z,26.60
2023-02-22T08:38:14.735Z,23.70
2023-02-22T08:40:41.208Z,28.77
2023-02-22T08:43:07.659Z,22.03
2023-02-22T08:45:34.151Z,23.70
2023-02-22T08:48:00.660Z,25.10
2023-02-22T08:50:29.779Z,24.80
2023-02-22T08:53:01.480Z,25.83
2023-02-22T08:55:32.072Z,21.73
2023-02-22T08:58:01.207Z,24.97
2023-02-22T09:00:29.535Z,25.97
2023-02-22T09:02:56.126Z,23.70
2023-02-22T09:05:22.630Z,24.77
2023-02-22T09:07:49.187Z,24.70
2023-02-22T09:10:19.971Z,24.93
2023-02-22T09:12:46.442Z,28.23
2023-02-22T09:15:12.928Z,24.13
2023-02-22T09:17:39.675Z,21.63
2023-02-22T09:20:07.587Z,24.17
2023-02-22T09:22:34.418Z,26.03
2023-02-22T09:25:11.223Z,23.80
2023-02-22T09:27:43.500Z,23.50
2023-02-22T09:30:31.940Z,23.23
2023-02-22T09:33:05.487Z,22.07
2023-02-22T09:35:35.990Z,21.27
2023-02-22T09:38:04.489Z,25.30
2023-02-22T09:40:33.076Z,22.77
2023-02-22T09:43:37.898Z,20.80
2023-02-22T09:46:20.213Z,23.63
2023-02-22T09:49:05.186Z,21.30
2023-02-22T09:51:41.207Z,20.40
2023-02-22T09:54:17.547Z,21.80
2023-02-22T09:56:46.865Z,22.80
2023-02-22T09:59:18.743Z,20.97
2023-02-22T10:01:48.855Z,19.33
2023-02-22T10:04:34.451Z,19.97
2023-02-22T10:07:05.898Z,20.47
2023-02-22T10:09:37.622Z,22.97
2023-02-22T10:12:25.527Z,20.47
2023-02-22T10:15:08.153Z,20.33
2023-02-22T10:17:47.549Z,19.73
2023-02-22T10:20:31.994Z,17.23
2023-02-22T10:23:14.144Z,17.08
2023-02-22T10:25:42.210Z,18.77
2023-02-22T10:28:25.067Z,15.80
2023-02-22T10:30:56.673Z,17.25
2023-02-22T10:33:51.168Z,16.98
2023-02-22T10:36:22.859Z,17.45
2023-02-22T10:38:55.513Z,14.90
2023-02-22T10:41:33.446Z,18.70
2023-02-22T10:44:01.773Z,17.08
2023-02-22T10:46:30.702Z,18.92
2023-02-22T10:49:02.747Z,20.35
2023-02-22T10:51:29.337Z,20.73
2023-02-22T10:54:27.076Z,17.65
2023-02-22T10:56:55.742Z,18.60
2023-02-22T10:59:32.744Z,19.15
2023-02-22T11:02:00.910Z,17.95
2023-02-22T11:04:27.866Z,18.90
2023-02-22T11:07:21.926Z,19.40
2023-02-22T11:09:54.544Z,19.90
2023-02-22T11:12:28.701Z,17.73
2023-02-22T11:14:56.174Z,18.30
2023-02-22T11:17:30.270Z,15.98
2023-02-22T11:19:57.485Z,18.27
2023-02-22T11:22:37.827Z,13.65
2023-02-22T11:25:07.483Z,14.55
2023-02-22T11:27:43.909Z,15.07
2023-02-22T11:30:22.145Z,13.18
2023-02-22T11:33:00.949Z,14.73
2023-02-22T11:35:58.241Z,12.98
2023-02-22T11:38:28.695Z,12.20
2023-02-22T11:41:15.169Z,12.20
2023-02-22T11:43:47.424Z,11.43
2023-02-22T11:46:18.307Z,8.68
2023-02-22T11:48:59.726Z,8.30
2023-02-22T11:51:39.125Z,7.70
2023-02-22T11:54:19.336Z,9.57
2023-02-22T11:56:48.799Z,6.80
2023-02-22T11:59:38.792Z,10.10
2023-02-22T12:02:21.667Z,12.23
2023-02-22T12:05:12.264Z,13.20
2023-02-22T12:07:48.594Z,9.70
2023-02-22T12:10:29.356Z,10.37
2023-02-22T12:13:20.737Z,9.57
2023-02-22T12:16:11.801Z,9.77
2023-02-22T12:19:16.261Z,11.13
2023-02-22T12:21:45.156Z,10.68
2023-02-22T12:24:16.384Z,11.38
2023-02-22T12:26:53.775Z,11.60
2023-02-22T12:29:27.013Z,9.82
2023-02-22T12:32:05.761Z,9.70
2023-02-22T12:34:43.222Z,9.35
2023-02-22T12:37:29.316Z,9.80
2023-02-22T12:40:17.031Z,9.93
2023-02-22T12:42:43.443Z,9.27
2023-02-22T12:45:20.607Z,8.73
2023-02-22T12:47:55.744Z,8.43
2023-02-22T12:50:26.314Z,8.98
2023-02-22T12:53:13.398Z,7.38
2023-02-22T12:55:47.979Z,7.63
2023-02-22T12:58:23.086Z,11.18
2023-02-22T13:01:02.012Z,8.45
2023-02-22T13:03:40.063Z,8.98
2023-02-22T13:06:36.675Z,9.05
2023-02-22T13:09:26.583Z,8.48
2023-02-22T13:12:20.388Z,9.13
2023-02-22T13:15:04.920Z,8.52
2023-02-22T13:17:49.991Z,8.13
2023-02-22T13:20:26.771Z,9.30
2023-02-22T13:23:08.695Z,6.70
2023-02-22T13:25:57.958Z,6.78
2023-02-22T13:28:33.672Z,7.35
2023-02-22T13:31:36.798Z,6.47
2023-02-22T13:34:13.841Z,8.77
2023-02-22T13:36:58.133Z,8.63
2023-02-22T13:39:54.629Z,7.65
2023-02-22T13:42:36.447Z,7.78
2023-02-22T13:45:21.342Z,7.20
2023-02-22T13:48:06.032Z,7.93
2023-02-22T13:50:39.381Z,7.38
2023-02-22T13:53:12.635Z,8.50
2023-02-22T13:55:41.453Z,8.52
2023-02-22T13:58:10.717Z,6.32
2023-02-22T14:00:42.176Z,9.02
2023-02-22T14:03:14.812Z,6.75
2023-02-22T14:05:41.599Z,6.40
2023-02-22T14:08:28.878Z,5.93
2023-02-22T14:11:02.209Z,6.57
2023-02-22T14:13:31.101Z,6.75
2023-02-22T14:16:00.713Z,5.57
2023-02-22T14:18:43.112Z,8.82
2023-02-22T14:21:14.369Z,8.13
2023-02-22T14:23:41.732Z,6.38
2023-02-22T14:26:13.918Z,7.93
2023-02-22T14:28:54.333Z,7.43
2023-02-22T14:31:37.288Z,7.15
2023-02-22T14:34:07.384Z,8.93
2023-02-22T14:36:56.221Z,6.45
2023-02-22T14:39:33.146Z,6.63
2023-02-22T14:42:17.084Z,8.68
2023-02-22T14:44:53.473Z,6.38
2023-02-22T14:47:28.220Z,6.18
2023-02-22T14:50:02.238Z,6.32
2023-02-22T14:52:30.968Z,10.20
2023-02-22T14:55:16.081Z,13.18
2023-02-22T14:57:59.152Z,14.52
2023-02-22T15:00:32.705Z,14.50
2023-02-22T15:03:00.622Z,17.52
2023-02-22T15:05:30.989Z,15.40
2023-02-22T15:08:00.653Z,16.02
2023-02-22T15:10:48.271Z,15.87
2023-02-22T15:13:14.709Z,17.77
2023-02-22T15:15:49.181Z,16.08
2023-02-22T15:18:23.520Z,15.77
2023-02-22T15:20:56.057Z,17.43
2023-02-22T15:23:26.225Z,17.10
2023-02-22T15:25:52.776Z,16.10
2023-02-22T15:28:19.535Z,17.10
2023-02-22T15:30:46.193Z,16.60
2023-02-22T15:33:24.198Z,16.53
2023-02-22T15:35:57.711Z,16.60
2023-02-22T15:38:29.309Z,13.90
2023-02-22T15:41:02.614Z,16.80
2023-02-22T15:43:29.947Z,16.10
2023-02-22T15:45:58.543Z,15.10
2023-02-22T15:48:28.677Z,18.90
2023-02-22T15:51:09.184Z,16.70
2023-02-22T15:53:44.352Z,16.83
2023-02-22T15:56:15.039Z,16.30
2023-02-22T15:58:42.350Z,15.07
2023-02-22T16:01:12.422Z,15.60
2023-02-22T16:03:47.255Z,14.13
2023-02-22T16:06:36.419Z,14.60
2023-02-22T16:09:18.182Z,14.20
2023-02-22T16:11:46.238Z,15.93
2023-02-22T16:14:27.264Z,15.63
2023-02-22T16:17:15.642Z,16.20
2023-02-22T16:19:44.953Z,15.27
2023-02-22T16:22:41.211Z,16.40
2023-02-22T16:25:21.501Z,14.00
2023-02-22T16:27:49.105Z,15.87
2023-02-22T16:30:24.962Z,15.97
2023-02-22T16:32:54.085Z,17.67
2023-02-22T16:35:20.631Z,18.50
2023-02-22T16:37:50.006Z,19.17
2023-02-22T16:40:27.496Z,18.90
2023-02-22T16:42:54.264Z,17.63
2023-02-22T16:45:21.723Z,21.57
2023-02-22T16:47:51.607Z,18.97
2023-02-22T16:50:18.105Z,18.53
2023-02-22T16:52:44.598Z,23.50
2023-02-22T16:55:13.391Z,18.50
2023-02-22T16:57:42.251Z,18.13
2023-02-22T17:00:16.612Z,19.63
2023-02-22T17:02:44.926Z,18.53
2023-02-22T17:05:15.715Z,20.33
2023-02-22T17:07:42.505Z,18.77
2023-02-22T17:10:15.828Z,17.87
2023-02-22T17:12:45.158Z,19.43
2023-02-22T17:15:24.693Z,20.67
2023-02-22T17:17:52.411Z,20.47
2023-02-22T17:20:29.882Z,19.17
2023-02-22T17:22:58.133Z,25.17
2023-02-22T17:25:46.686Z,23.73
2023-02-22T17:28:13.209Z,18.07
2023-02-22T17:30:39.912Z,20.73
2023-02-22T17:33:07.929Z,22.63
2023-02-22T17:35:37.247Z,21.33
2023-02-22T17:38:08.153Z,18.23
2023-02-22T17:40:36.330Z,22.13
2023-02-22T17:43:03.513Z,26.90
2023-02-22T17:45:30.208Z,22.27
2023-02-22T17:47:59.005Z,22.63
2023-02-22T17:50:27.146Z,20.77
2023-02-22T17:52:54.167Z,21.63
2023-02-22T17:55:21.366Z,21.03
2023-02-22T17:57:58.269Z,24.60
2023-02-22T18:00:33.596Z,21.60
2023-02-22T18:03:03.059Z,20.70
2023-02-22T18:05:30.452Z,21.93
2023-02-22T18:07:56.916Z,22.10
2023-02-22T18:10:23.429Z,23.43
2023-02-22T18:12:50.176Z,21.90
2023-02-22T18:15:19.462Z,19.27
2023-02-22T18:17:46.744Z,17.10
2023-02-22T18:20:14.555Z,19.00
2023-02-22T18:22:43.340Z,19.33
2023-02-22T18:25:14.742Z,20.07
2023-02-22T18:27:43.290Z,17.47
2023-02-22T18:30:12.024Z,18.07
2023-02-22T18:32:39.246Z,22.83
2023-02-22T18:35:06.549Z,32.10
2023-02-22T18:37:33.570Z,23.70
2023-02-22T18:40:01.422Z,23.20
2023-02-22T18:42:28.367Z,19.97
2023-02-22T18:45:00.594Z,20.50
2023-02-22T18:47:27.518Z,19.27
2023-02-22T18:49:54.195Z,21.17
2023-02-22T18:52:21.056Z,20.93
2023-02-22T18:54:48.824Z,23.47
2023-02-22T18:57:16.144Z,19.90
2023-02-22T18:59:43.320Z,18.87
2023-02-22T19:02:13.974Z,19.77
2023-02-22T19:04:40.869Z,22.13
2023-02-22T19:07:07.325Z,19.53
2023-02-22T19:09:33.816Z,19.87
2023-02-22T19:12:00.263Z,21.50
2023-02-22T19:14:26.854Z,19.93
2023-02-22T19:16:56.504Z,20.70
2023-02-22T19:19:26.110Z,21.43
2023-02-22T19:21:56.277Z,19.23
2023-02-22T19:24:23.102Z,19.80
2023-02-22T19:26:57.185Z,21.10
2023-02-22T19:29:23.844Z,22.20
2023-02-22T19:31:51.617Z,21.83
2023-02-22T19:34:21.826Z,19.50
2023-02-22T19:36:48.865Z,19.23
2023-02-22T19:39:18.897Z,21.13
2023-02-22T19:41:46.759Z,25.17
2023-02-22T19:44:13.542Z,24.60
2023-02-22T19:46:40.270Z,20.80
2023-02-22T19:49:07.621Z,23.17
2023-02-22T19:51:34.450Z,22.10
2023-02-22T19:54:06.229Z,20.60
2023-02-22T19:56:35.208Z,21.03
2023-02-22T19:59:09.471Z,21.73
2023-02-22T20:01:36.805Z,21.93
2023-02-22T20:04:06.348Z,20.97
2023-02-22T20:06:41.949Z,19.90
2023-02-22T20:09:11.468Z,26.13
2023-02-22T20:11:38.277Z,24.47
2023-02-22T20:14:08.125Z,20.10
2023-02-22T20:16:35.223Z,22.53
2023-02-22T20:19:01.827Z,22.00
2023-02-22T20:21:33.175Z,21.33
2023-02-22T20:24:06.732Z,21.63
2023-02-22T20:26:35.316Z,19.97
2023-02-22T20:29:04.015Z,24.53
2023-02-22T20:31:31.589Z,26.20
2023-02-22T20:34:00.091Z,24.23
2023-02-22T20:36:28.261Z,28.03
2023-02-22T20:38:57.620Z,25.13
2023-02-22T20:41:28.848Z,25.80
2023-02-22T20:43:56.254Z,24.97
2023-02-22T20:46:24.006Z,24.77
2023-02-22T20:48:55.337Z,26.43
2023-02-22T20:51:21.911Z,24.57
2023-02-22T20:53:48.894Z,22.90
2023-02-22T20:56:18.003Z,30.17
2023-02-22T20:58:44.581Z,26.00
2023-02-22T21:01:12.686Z,28.50
2023-02-22T21:03:40.734Z,26.93
2023-02-22T21:06:07.744Z,28.10
2023-02-22T21:08:34.175Z,26.57
2023-02-22T21:11:01.056Z,31.93
2023-02-22T21:13:27.632Z,31.00
2023-02-22T21:15:54.168Z,34.00
2023-02-22T21:18:22.516Z,32.87
2023-02-22T21:20:49.832Z,32.27
2023-02-22T21:23:16.419Z,38.07
2023-02-22T21:25:53.086Z,32.27
2023-02-22T21:28:19.994Z,32.87
2023-02-22T21:30:47.356Z,34.63
2023-02-22T21:33:17.240Z,35.20
2023-02-22T21:35:46.925Z,35.10
2023-02-22T21:38:14.499Z,34.50
2023-02-22T21:40:41.736Z,34.87
2023-02-22T21:43:10.588Z,31.37
2023-02-22T21:45:37.704Z,33.53
2023-02-22T21:48:04.891Z,34.63
2023-02-22T21:50:31.862Z,33.67
2023-02-22T21:52:59.052Z,34.73
2023-02-22T21:55:26.457Z,35.10
2023-02-22T21:57:52.997Z,33.87
2023-02-22T22:00:29.312Z,38.63
2023-02-22T22:03:14.636Z,34.83
2023-02-22T22:05:45.164Z,34.73
2023-02-22T22:08:19.562Z,38.63
2023-02-22T22:10:51.233Z,36.17
2023-02-22T22:13:17.812Z,39.47
2023-02-22T22:15:44.250Z,38.33
2023-02-22T22:18:11.661Z,36.20
2023-02-22T22:20:38.904Z,36.70
2023-02-22T22:23:06.836Z,34.40
2023-02-22T22:25:38.038Z,36.27
2023-02-22T22:28:07.529Z,33.83
2023-02-22T22:30:38.010Z,35.40
2023-02-22T22:33:05.627Z,34.10
2023-02-22T22:35:33.486Z,34.23
2023-02-22T22:38:00.944Z,34.37
2023-02-22T22:40:28.013Z,35.23
2023-02-22T22:42:54.503Z,37.20
2023-02-22T22:45:21.093Z,33.07
2023-02-22T22:47:48.264Z,31.67
2023-02-22T22:50:18.734Z,32.40
2023-02-22T22:52:46.063Z,36.07
2023-02-22T22:55:12.562Z,31.83
2023-02-22T22:57:39.912Z,31.00
2023-02-22T23:00:30.308Z,32.83
2023-02-22T23:02:57.259Z,34.13
2023-02-22T23:05:28.246Z,31.87
2023-02-22T23:07:56.320Z,35.57
2023-02-22T23:10:27.088Z,30.27
2023-02-22T23:12:56.156Z,33.73
2023-02-22T23:15:24.625Z,29.60
2023-02-22T23:17:56.009Z,33.57
2023-02-22T23:20:26.158Z,34.33
2023-02-22T23:22:54.187Z,33.53
2023-02-22T23:25:21.587Z,33.23
2023-02-22T23:27:49.385Z,32.70
2023-02-22T23:30:18.635Z,31.77
2023-02-22T23:32:46.644Z,32.30
2023-02-22T23:35:14.930Z,31.90
2023-02-22T23:37:42.345Z,33.07
2023-02-22T23:40:17.333Z,36.80
2023-02-22T23:42:54.623Z,34.67
2023-02-22T23:45:24.610Z,30.80
2023-02-22T23:47:56.406Z,30.57
2023-02-22T23:50:28.986Z,32.73
2023-02-22T23:52:58.063Z,29.80
2023-02-22T23:55:31.395Z,32.33
2023-02-22T23:57:59.442Z,30.43
